createdAt,value
2023-01-23T00:01:26.533Z,14.35
2023-01-23T00:03:55.121Z,14.38
2023-01-23T00:06:22.835Z,13.05
2023-01-23T00:08:49.891Z,14.07
2023-01-23T00:11:23.848Z,14.43
2023-01-23T00:13:51.369Z,14.45
2023-01-23T00:16:21.863Z,14.60
2023-01-23T00:18:49.793Z,16.35
2023-01-23T00:21:20.474Z,15.00
2023-01-23T00:23:52.012Z,14.73
2023-01-23T00:26:24.834Z,14.68
2023-01-23T00:28:53.741Z,14.70
2023-01-23T00:31:25.396Z,15.02
2023-01-23T00:34:15.610Z,16.25
2023-01-23T00:36:44.374Z,16.33
2023-01-23T00:39:22.494Z,15.00
2023-01-23T00:41:50.229Z,15.13
2023-01-23T00:44:17.708Z,14.77
2023-01-23T00:46:44.679Z,16.00
2023-01-23T00:49:11.713Z,15.77
2023-01-23T00:51:38.522Z,15.20
2023-01-23T00:54:05.747Z,16.35
2023-01-23T00:56:32.525Z,15.82
2023-01-23T00:58:59.328Z,15.23
2023-01-23T01:01:27.783Z,16.08
2023-01-23T01:03:54.660Z,15.90
2023-01-23T01:06:21.450Z,16.55
2023-01-23T01:08:48.535Z,16.23
2023-01-23T01:11:15.492Z,16.10
2023-01-23T01:13:43.539Z,15.00
2023-01-23T01:16:10.941Z,16.77
2023-01-23T01:18:38.449Z,14.65
2023-01-23T01:21:12.265Z,14.75
2023-01-23T01:23:40.179Z,15.52
2023-01-23T01:26:07.908Z,16.02
2023-01-23T01:28:38.029Z,16.00
2023-01-23T01:31:12.279Z,15.40
2023-01-23T01:33:40.294Z,14.60
2023-01-23T01:36:16.771Z,14.35
2023-01-23T01:38:44.417Z,15.30
2023-01-23T01:41:13.199Z,15.18
2023-01-23T01:43:40.268Z,14.57
2023-01-23T01:46:22.409Z,13.88
2023-01-23T01:49:12.975Z,14.32
2023-01-23T01:51:59.066Z,14.63
2023-01-23T01:54:30.841Z,12.43
2023-01-23T01:57:21.966Z,14.18
2023-01-23T01:59:58.010Z,13.98
2023-01-23T02:02:35.916Z,15.35
2023-01-23T02:05:16.108Z,13.82
2023-01-23T02:07:58.578Z,14.63
2023-01-23T02:10:25.445Z,14.32
2023-01-23T02:12:52.804Z,16.40
2023-01-23T02:15:22.211Z,15.48
2023-01-23T02:17:51.894Z,15.63
2023-01-23T02:20:28.596Z,15.13
2023-01-23T02:23:07.087Z,14.95
2023-01-23T02:25:55.628Z,14.85
2023-01-23T02:28:23.077Z,14.57
2023-01-23T02:30:52.356Z,15.52
2023-01-23T02:33:24.680Z,13.95
2023-01-23T02:35:51.538Z,15.73
2023-01-23T02:38:24.804Z,14.68
2023-01-23T02:40:52.535Z,14.70
2023-01-23T02:43:24.393Z,14.77
2023-01-23T02:45:52.127Z,15.27
2023-01-23T02:48:19.046Z,15.40
2023-01-23T02:50:46.428Z,13.63
2023-01-23T02:53:15.682Z,14.13
2023-01-23T02:55:43.213Z,14.73
2023-01-23T02:58:28.615Z,14.90
2023-01-23T03:00:55.396Z,13.70
2023-01-23T03:03:22.782Z,13.45
2023-01-23T03:05:50.264Z,15.35
2023-01-23T03:08:17.299Z,14.35
2023-01-23T03:10:44.063Z,13.30
2023-01-23T03:17:17.634Z,13.45
2023-01-23T03:19:45.738Z,13.02
2023-01-23T03:22:12.511Z,13.57
2023-01-23T03:24:39.359Z,13.30
2023-01-23T03:27:06.406Z,14.55
2023-01-23T03:29:51.602Z,13.60
2023-01-23T03:32:18.486Z,14.15
2023-01-23T03:34:45.279Z,14.15
2023-01-23T03:37:13.505Z,14.43
2023-01-23T03:39:58.681Z,13.25
2023-01-23T03:42:25.521Z,13.55
2023-01-23T03:44:52.951Z,14.23
2023-01-23T03:47:20.808Z,14.48
2023-01-23T03:49:47.686Z,13.98
2023-01-23T03:52:14.485Z,13.95
2023-01-23T03:54:42.215Z,14.27
2023-01-23T03:57:09.514Z,14.40
2023-01-23T03:59:36.615Z,14.15
2023-01-23T04:02:04.949Z,15.63
2023-01-23T04:04:33.341Z,13.25
2023-01-23T04:07:00.764Z,13.70
2023-01-23T04:09:28.183Z,14.38
2023-01-23T04:11:55.634Z,13.98
2023-01-23T04:14:24.718Z,14.90
2023-01-23T04:16:52.448Z,14.68
2023-01-23T04:19:19.709Z,13.23
2023-01-23T04:21:49.766Z,14.10
2023-01-23T04:24:17.610Z,13.95
2023-01-23T04:26:44.941Z,13.40
2023-01-23T04:29:11.960Z,14.18
2023-01-23T04:31:38.985Z,12.77
2023-01-23T04:34:05.850Z,12.35
2023-01-23T04:36:32.600Z,13.73
2023-01-23T04:38:59.372Z,13.27
2023-01-23T04:41:29.351Z,14.18
2023-01-23T04:43:56.113Z,13.15
2023-01-23T04:46:23.224Z,12.80
2023-01-23T04:48:50.103Z,13.25
2023-01-23T04:51:16.934Z,13.85
2023-01-23T04:53:43.726Z,13.32
2023-01-23T04:56:10.507Z,13.27
2023-01-23T04:58:37.324Z,12.85
2023-01-23T05:01:07.974Z,13.88
2023-01-23T05:03:35.046Z,13.88
2023-01-23T05:06:01.877Z,14.70
2023-01-23T05:08:28.625Z,14.32
2023-01-23T05:10:55.463Z,13.90
2023-01-23T05:13:22.454Z,15.23
2023-01-23T05:15:49.259Z,14.90
2023-01-23T05:18:16.246Z,14.07
2023-01-23T05:20:43.065Z,15.43
2023-01-23T05:23:09.981Z,15.00
2023-01-23T05:25:36.803Z,14.30
2023-01-23T05:28:03.702Z,13.77
2023-01-23T05:30:30.484Z,13.52
2023-01-23T05:32:57.255Z,14.65
2023-01-23T05:35:24.039Z,13.93
2023-01-23T05:37:54.278Z,15.35
2023-01-23T05:40:21.926Z,15.15
2023-01-23T05:42:49.336Z,13.98
2023-01-23T05:45:16.625Z,15.63
2023-01-23T05:47:44.181Z,15.65
2023-01-23T05:50:17.549Z,15.43
2023-01-23T05:52:44.902Z,13.93
2023-01-23T05:55:12.253Z,14.50
2023-01-23T05:57:39.024Z,14.98
2023-01-23T06:00:08.941Z,14.85
2023-01-23T06:02:35.820Z,14.57
2023-01-23T06:05:02.591Z,15.52
2023-01-23T06:07:29.379Z,14.48
2023-01-23T06:09:56.122Z,15.60
2023-01-23T06:12:22.922Z,14.65
2023-01-23T06:14:49.852Z,15.15
2023-01-23T06:17:16.655Z,16.30
2023-01-23T06:19:43.487Z,17.23
2023-01-23T06:22:10.300Z,15.40
2023-01-23T06:24:37.113Z,16.52
2023-01-23T06:27:08.134Z,17.52
2023-01-23T06:29:36.140Z,15.77
2023-01-23T06:32:03.706Z,15.15
2023-01-23T06:34:30.593Z,15.32
2023-01-23T06:36:57.358Z,16.42
2023-01-23T06:39:24.108Z,14.45
2023-01-23T06:41:50.890Z,16.38
2023-01-23T06:44:17.654Z,14.73
2023-01-23T06:46:44.468Z,15.18
2023-01-23T06:49:11.296Z,14.95
2023-01-23T06:51:38.154Z,15.07
2023-01-23T06:54:05.299Z,14.70
2023-01-23T06:56:32.174Z,14.02
2023-01-23T06:58:58.962Z,15.38
2023-01-23T07:01:26.369Z,15.38
2023-01-23T07:03:53.207Z,15.90
2023-01-23T07:06:20.541Z,15.35
2023-01-23T07:08:47.426Z,16.10
2023-01-23T07:11:14.455Z,15.85
2023-01-23T07:13:41.356Z,17.60
2023-01-23T07:16:08.394Z,16.10
2023-01-23T07:18:35.970Z,16.02
2023-01-23T07:21:06.412Z,16.00
2023-01-23T07:23:34.982Z,15.80
2023-01-23T07:26:04.355Z,16.23
2023-01-23T07:28:31.402Z,15.93
2023-01-23T07:30:59.515Z,15.27
2023-01-23T07:33:26.492Z,16.27
2023-01-23T07:35:53.288Z,14.52
2023-01-23T07:38:20.518Z,16.33
2023-01-23T07:40:47.277Z,16.55
2023-01-23T07:43:14.010Z,16.33
2023-01-23T07:45:40.799Z,16.02
2023-01-23T07:48:08.436Z,16.73
2023-01-23T07:50:35.782Z,16.08
2023-01-23T07:53:03.461Z,17.13
2023-01-23T07:55:30.239Z,17.83
2023-01-23T07:57:57.054Z,16.80
2023-01-23T08:00:25.234Z,18.17
2023-01-23T08:02:52.890Z,17.50
2023-01-23T08:05:19.666Z,17.75
2023-01-23T08:07:46.508Z,17.80
2023-01-23T08:10:13.434Z,17.98
2023-01-23T08:12:40.275Z,18.63
2023-01-23T08:15:08.065Z,19.73
2023-01-23T08:17:34.864Z,19.27
2023-01-23T08:20:01.838Z,20.33
2023-01-23T08:22:28.657Z,19.10
2023-01-23T08:24:55.442Z,20.70
2023-01-23T08:27:22.409Z,20.17
2023-01-23T08:29:49.165Z,20.08
2023-01-23T08:32:15.948Z,19.48
2023-01-23T08:34:42.708Z,19.63
2023-01-23T08:37:09.469Z,19.88
2023-01-23T08:39:36.238Z,20.10
2023-01-23T08:42:03.036Z,20.17
2023-01-23T08:44:31.222Z,20.50
2023-01-23T08:46:58.084Z,20.02
2023-01-23T08:49:24.952Z,21.42
2023-01-23T08:51:51.766Z,21.48
2023-01-23T08:54:18.514Z,20.98
2023-01-23T08:56:45.284Z,22.27
2023-01-23T08:59:12.046Z,23.00
2023-01-23T09:01:38.849Z,22.08
2023-01-23T09:04:08.827Z,20.98
2023-01-23T09:06:36.378Z,22.08
2023-01-23T09:09:03.190Z,22.27
2023-01-23T09:11:30.179Z,22.33
2023-01-23T09:13:56.928Z,22.75
2023-01-23T09:16:23.743Z,23.10
2023-01-23T09:18:50.594Z,22.73
2023-01-23T09:21:17.819Z,21.10
2023-01-23T09:23:44.603Z,22.23
2023-01-23T09:26:13.832Z,21.95
2023-01-23T09:28:42.660Z,20.88
2023-01-23T09:31:14.480Z,20.50
2023-01-23T09:33:41.639Z,20.48
2023-01-23T09:36:09.470Z,20.65
2023-01-23T09:38:36.677Z,22.02
2023-01-23T09:41:25.695Z,21.73
2023-01-23T09:44:07.698Z,21.60
2023-01-23T09:46:37.287Z,21.83
2023-01-23T09:49:25.664Z,21.42
2023-01-23T09:52:02.543Z,21.75
2023-01-23T09:54:49.551Z,21.17
2023-01-23T09:57:28.107Z,20.42
2023-01-23T10:00:30.754Z,19.80
2023-01-23T10:03:03.026Z,20.40
2023-01-23T10:06:34.138Z,20.77
2023-01-23T10:09:54.082Z,19.73
2023-01-23T10:13:02.849Z,18.55
2023-01-23T10:16:07.708Z,18.80
2023-01-23T10:18:47.542Z,19.23
2023-01-23T10:21:55.580Z,17.20
2023-01-23T10:24:51.472Z,16.65
2023-01-23T10:27:22.086Z,17.38
2023-01-23T10:30:15.882Z,17.75
2023-01-23T10:32:56.198Z,16.93
2023-01-23T10:35:45.493Z,17.25
2023-01-23T10:38:31.053Z,16.52
2023-01-23T10:41:23.205Z,16.77
2023-01-23T10:43:53.410Z,15.95
2023-01-23T10:46:37.994Z,15.95
2023-01-23T10:49:04.976Z,17.13
2023-01-23T10:51:37.756Z,17.48
2023-01-23T10:54:31.775Z,16.95
2023-01-23T10:59:41.433Z,16.40
2023-01-23T11:02:14.481Z,18.15
2023-01-23T11:04:47.653Z,11.95
2023-01-23T11:07:26.520Z,16.98
2023-01-23T11:10:08.274Z,18.10
2023-01-23T11:12:50.411Z,19.50
2023-01-23T11:15:31.390Z,17.30
2023-01-23T11:18:00.933Z,17.92
2023-01-23T11:20:38.953Z,19.05
2023-01-23T11:23:09.095Z,17.00
2023-01-23T11:25:45.235Z,17.35
2023-01-23T11:28:34.208Z,16.90
2023-01-23T11:31:15.397Z,18.05
2023-01-23T11:34:10.152Z,17.30
2023-01-23T11:37:01.122Z,18.13
2023-01-23T11:39:54.847Z,16.52
2023-01-23T11:42:21.658Z,18.27
2023-01-23T11:44:49.875Z,17.90
2023-01-23T11:47:43.252Z,17.42
2023-01-23T11:50:28.362Z,17.50
2023-01-23T11:53:22.481Z,16.60
2023-01-23T11:56:21.192Z,16.65
2023-01-23T11:59:20.134Z,17.13
2023-01-23T12:02:04.021Z,15.88
2023-01-23T12:05:05.821Z,17.02
2023-01-23T12:07:50.578Z,17.33
2023-01-23T12:10:44.092Z,16.60
2023-01-23T12:13:24.265Z,16.92
2023-01-23T12:16:34.576Z,17.90
2023-01-23T12:19:39.423Z,17.08
2023-01-23T12:22:19.051Z,16.88
2023-01-23T12:25:36.041Z,17.60
2023-01-23T12:28:55.427Z,18.10
2023-01-23T12:31:51.329Z,17.65
2023-01-23T12:34:58.219Z,18.73
2023-01-23T12:37:37.640Z,19.25
2023-01-23T12:40:24.260Z,19.90
2023-01-23T12:42:54.442Z,20.95
2023-01-23T12:45:30.117Z,20.13
2023-01-23T12:48:23.391Z,20.67
2023-01-23T12:51:02.010Z,20.55
2023-01-23T12:53:34.517Z,18.52
2023-01-23T12:56:35.162Z,20.20
2023-01-23T12:59:32.857Z,19.98
2023-01-23T13:02:12.387Z,20.23
2023-01-23T13:05:03.938Z,20.23
2023-01-23T13:07:37.816Z,18.17
2023-01-23T13:10:51.323Z,20.05
2023-01-23T13:13:19.319Z,18.52
2023-01-23T13:16:03.789Z,19.30
2023-01-23T13:21:35.645Z,16.10
2023-01-23T13:24:43.998Z,18.00
2023-01-23T13:27:45.168Z,16.65
2023-01-23T13:30:26.995Z,17.73
2023-01-23T13:33:00.610Z,17.90
2023-01-23T13:35:39.502Z,16.80
2023-01-23T13:38:21.427Z,17.35
2023-01-23T13:41:08.400Z,17.27
2023-01-23T13:43:50.467Z,18.95
2023-01-23T14:21:59.602Z,16.73
2023-01-23T14:24:31.945Z,18.02
2023-01-23T14:27:09.437Z,17.13
2023-01-23T14:29:36.824Z,18.27
2023-01-23T14:32:03.781Z,18.92
2023-01-23T14:34:38.909Z,17.95
2023-01-23T14:37:12.383Z,17.88
2023-01-23T14:39:40.976Z,17.95
2023-01-23T14:42:23.740Z,19.02
2023-01-23T14:44:51.180Z,17.73
2023-01-23T14:47:32.805Z,17.88
2023-01-23T14:50:02.896Z,17.88
2023-01-23T14:52:31.258Z,18.63
2023-01-23T14:55:07.179Z,18.83
2023-01-23T14:57:35.324Z,17.33
2023-01-23T15:00:03.502Z,18.52
2023-01-23T15:02:33.250Z,17.90
2023-01-23T15:05:15.056Z,17.95
2023-01-23T15:07:58.285Z,18.23
2023-01-23T15:10:44.748Z,18.58
2023-01-23T15:13:26.354Z,17.92
2023-01-23T15:15:58.895Z,19.33
2023-01-23T15:18:35.208Z,18.35
2023-01-23T15:21:07.556Z,18.67
2023-01-23T15:23:41.170Z,19.95
2023-01-23T15:26:19.283Z,19.13
2023-01-23T15:29:00.937Z,20.77
2023-01-23T15:31:30.592Z,19.75
2023-01-23T15:34:16.676Z,20.63
2023-01-23T15:36:52.116Z,21.15
2023-01-23T15:39:28.835Z,20.10
2023-01-23T15:42:05.241Z,20.70
2023-01-23T15:44:32.760Z,20.52
2023-01-23T15:47:03.904Z,20.42
2023-01-23T15:49:36.663Z,19.80
2023-01-23T15:52:25.394Z,19.83
2023-01-23T15:54:55.648Z,20.23
2023-01-23T15:57:22.973Z,19.63
2023-01-23T15:59:49.786Z,20.20
2023-01-23T16:02:30.498Z,20.75
2023-01-23T16:04:58.620Z,19.70
2023-01-23T16:07:34.877Z,21.50
2023-01-23T16:10:07.269Z,20.30
2023-01-23T16:12:38.535Z,21.20
2023-01-23T16:15:18.167Z,19.40
2023-01-23T16:17:45.603Z,20.38
2023-01-23T16:20:20.454Z,18.92
2023-01-23T16:22:52.074Z,20.63
2023-01-23T16:25:42.916Z,19.77
2023-01-23T16:28:23.813Z,20.15
2023-01-23T16:30:51.746Z,20.27
2023-01-23T16:33:20.023Z,20.98
2023-01-23T16:35:48.645Z,19.67
2023-01-23T16:38:26.389Z,20.55
2023-01-23T16:40:54.833Z,19.40
2023-01-23T16:43:22.865Z,20.33
2023-01-23T16:45:49.676Z,20.60
2023-01-23T16:48:26.345Z,20.02
2023-01-23T16:51:08.148Z,19.08
2023-01-23T16:53:42.630Z,18.90
2023-01-23T16:56:22.244Z,20.48
2023-01-23T16:58:50.045Z,19.30
2023-01-23T17:01:21.600Z,19.48
2023-01-23T17:03:59.935Z,18.17
2023-01-23T17:06:26.699Z,20.67
2023-01-23T17:08:53.660Z,20.77
2023-01-23T17:11:36.410Z,22.83
2023-01-23T17:14:09.083Z,22.23
2023-01-23T17:16:35.857Z,20.48
2023-01-23T17:19:15.424Z,20.85
2023-01-23T17:21:43.233Z,20.33
2023-01-23T17:24:16.391Z,20.15
2023-01-23T17:26:44.001Z,19.90
2023-01-23T17:29:11.335Z,19.65
2023-01-23T17:31:39.444Z,20.23
2023-01-23T17:34:07.507Z,20.27
2023-01-23T17:36:35.082Z,20.05
2023-01-23T17:39:02.185Z,19.55
2023-01-23T17:41:29.149Z,20.30
2023-01-23T17:43:55.916Z,21.13
2023-01-23T17:46:27.212Z,19.30
2023-01-23T17:48:55.651Z,20.92
2023-01-23T17:51:24.471Z,21.23
2023-01-23T17:53:51.665Z,20.75
2023-01-23T17:56:19.004Z,20.50
2023-01-23T17:58:45.853Z,19.30
2023-01-23T18:01:21.810Z,21.73
2023-01-23T18:03:50.626Z,20.77
2023-01-23T18:06:18.879Z,21.40
2023-01-23T18:08:45.788Z,21.88
2023-01-23T18:11:24.193Z,22.23
2023-01-23T18:14:23.585Z,22.23
2023-01-23T18:16:51.105Z,21.40
2023-01-23T18:19:24.732Z,21.15
2023-01-23T18:21:57.379Z,20.67
2023-01-23T18:24:33.069Z,21.27
2023-01-23T18:27:21.482Z,21.17
2023-01-23T18:30:39.883Z,22.90
2023-01-23T18:33:30.722Z,22.02
2023-01-23T18:36:18.736Z,21.23
2023-01-23T18:39:31.991Z,22.33
2023-01-23T18:42:15.634Z,22.98
2023-01-23T18:44:57.414Z,24.08
2023-01-23T18:47:26.321Z,23.23
2023-01-23T18:49:53.493Z,24.17
2023-01-23T18:52:46.153Z,23.92
2023-01-23T18:55:39.769Z,23.10
2023-01-23T18:58:43.193Z,24.73
2023-01-23T19:01:40.803Z,21.50
2023-01-23T19:04:16.327Z,23.42
2023-01-23T19:06:44.618Z,24.17
2023-01-23T19:09:21.120Z,25.20
2023-01-23T19:12:25.406Z,22.77
2023-01-23T19:15:20.922Z,23.27
2023-01-23T19:17:59.603Z,22.00
2023-01-23T19:20:53.333Z,24.08
2023-01-23T19:24:02.222Z,23.92
2023-01-23T19:26:35.562Z,22.05
2023-01-23T19:29:20.084Z,24.08
2023-01-23T19:32:03.499Z,24.90
2023-01-23T19:34:30.785Z,23.30
2023-01-23T19:36:57.595Z,23.40
2023-01-23T19:39:24.381Z,23.92
2023-01-23T19:41:51.867Z,22.38
2023-01-23T19:44:22.290Z,23.95
2023-01-23T19:46:49.118Z,23.08
2023-01-23T19:49:15.954Z,22.95
2023-01-23T19:51:43.222Z,22.38
2023-01-23T19:54:12.614Z,25.02
2023-01-23T19:56:40.187Z,23.27
2023-01-23T19:59:07.438Z,23.98
2023-01-23T20:01:45.557Z,24.17
2023-01-23T20:04:20.675Z,23.05
2023-01-23T20:06:51.787Z,21.83
2023-01-23T20:09:19.253Z,21.88
2023-01-23T20:11:46.851Z,22.25
2023-01-23T20:14:13.971Z,23.25
2023-01-23T20:16:43.010Z,23.38
2023-01-23T20:19:14.315Z,23.02
2023-01-23T20:21:41.203Z,22.25
2023-01-23T20:24:08.419Z,22.88
2023-01-23T20:26:36.036Z,22.13
2023-01-23T20:29:03.945Z,22.88
2023-01-23T20:31:32.748Z,22.88
2023-01-23T20:33:59.725Z,24.40
2023-01-23T20:36:26.570Z,23.50
2023-01-23T20:38:53.929Z,23.85
2023-01-23T20:41:21.585Z,23.50
2023-01-23T20:43:48.764Z,22.67
2023-01-23T20:46:18.963Z,23.77
2023-01-23T20:48:46.002Z,22.00
2023-01-23T20:51:16.560Z,22.75
2023-01-23T20:53:44.115Z,22.60
2023-01-23T20:56:18.887Z,23.02
2023-01-23T20:59:07.214Z,22.25
2023-01-23T21:01:55.885Z,22.65
2023-01-23T21:04:25.367Z,23.10
2023-01-23T21:06:52.735Z,21.75
2023-01-23T21:09:19.939Z,22.73
2023-01-23T21:11:46.776Z,21.67
2023-01-23T21:14:13.852Z,22.63
2023-01-23T21:16:40.750Z,22.70
2023-01-23T21:19:07.613Z,21.30
2023-01-23T21:21:34.993Z,22.50
2023-01-23T21:24:01.907Z,21.50
2023-01-23T21:26:29.192Z,21.90
2023-01-23T21:28:57.601Z,22.42
2023-01-23T21:31:29.265Z,21.50
2023-01-23T21:34:00.324Z,22.13
2023-01-23T21:36:28.075Z,25.02
2023-01-23T21:38:55.451Z,21.27
2023-01-23T21:41:22.689Z,22.23
2023-01-23T21:43:49.557Z,20.65
2023-01-23T21:46:16.529Z,21.27
2023-01-23T21:48:43.415Z,20.38
2023-01-23T21:51:16.672Z,21.88
2023-01-23T21:53:46.236Z,21.52
2023-01-23T21:56:16.033Z,22.38
2023-01-23T21:58:43.599Z,21.45
2023-01-23T22:01:33.503Z,20.63
2023-01-23T22:04:10.656Z,21.38
2023-01-23T22:06:40.738Z,20.30
2023-01-23T22:09:09.221Z,20.98
2023-01-23T22:11:36.778Z,22.38
2023-01-23T22:14:04.589Z,22.13
2023-01-23T22:16:47.479Z,24.27
2023-01-23T22:19:18.952Z,21.83
2023-01-23T22:21:46.540Z,21.58
2023-01-23T22:24:14.397Z,21.75
2023-01-23T22:26:41.175Z,21.90
2023-01-23T22:29:08.593Z,22.23
2023-01-23T22:31:35.556Z,21.95
2023-01-23T22:34:02.500Z,21.90
2023-01-23T22:36:29.308Z,22.33
2023-01-23T22:38:56.275Z,21.83
2023-01-23T22:41:23.772Z,21.88
2023-01-23T22:43:55.322Z,22.17
2023-01-23T22:46:23.371Z,21.70
2023-01-23T22:48:50.800Z,21.83
2023-01-23T22:51:24.622Z,22.40
2023-01-23T22:53:56.166Z,22.10
2023-01-23T22:56:24.739Z,22.23
2023-01-23T22:58:54.272Z,22.13
2023-01-23T23:01:24.725Z,21.70
2023-01-23T23:03:52.083Z,21.67
2023-01-23T23:06:19.987Z,21.77
2023-01-23T23:08:48.101Z,20.35
2023-01-23T23:11:21.254Z,21.25
2023-01-23T23:13:48.223Z,21.98
2023-01-23T23:16:24.673Z,21.48
2023-01-23T23:18:54.398Z,22.25
2023-01-23T23:21:25.478Z,21.73
2023-01-23T23:23:57.740Z,21.60
2023-01-23T23:26:26.600Z,20.05
2023-01-23T23:28:54.577Z,22.15
2023-01-23T23:31:21.533Z,21.40
2023-01-23T23:33:48.399Z,21.45
2023-01-23T23:36:15.238Z,20.08
2023-01-23T23:38:42.074Z,19.58
2023-01-23T23:41:13.780Z,19.75
2023-01-23T23:43:40.683Z,21.42
2023-01-23T23:46:08.579Z,21.50
2023-01-23T23:48:37.562Z,19.73
2023-01-23T23:51:07.611Z,19.45
2023-01-23T23:53:35.695Z,21.58
2023-01-23T23:56:03.902Z,21.02
2023-01-23T23:58:30.684Z,20.92
